Time;durP1;ratioP1;P1;durP2;ratioP2;P2;SDS_P1;SDS_P2;PMS_P1;PMS_P2;Temp;Humidity;BMP_temperature;BMP_pressure;BME280_temperature;BME280_humidity;BME280_pressure;Samples;Min_cycle;Max_cycle;Signal;HPM_P1;HPM_P2
2021/10/15 00:01:54;;;;;;;1.10;0.98;;;22.50;47.20;;;;;;6283534;28;20025;-65
2021/10/15 00:04:54;;;;;;;1.88;0.95;;;22.50;47.10;;;;;;6266655;28;20022;-65
2021/10/15 00:07:55;;;;;;;0.88;0.80;;;22.50;47.10;;;;;;6281872;28;20013;-65
2021/10/15 00:10:55;;;;;;;1.40;1.20;;;22.50;47.10;;;;;;6290757;28;20049;-67
2021/10/15 00:13:56;;;;;;;1.38;1.10;;;22.50;47.00;;;;;;6286552;28;20033;-67
2021/10/15 00:16:57;;;;;;;1.00;0.90;;;22.50;47.00;;;;;;6249265;28;20389;-67
2021/10/15 00:19:57;;;;;;;2.05;1.05;;;22.50;47.00;;;;;;6266444;28;20375;-67
2021/10/15 00:22:58;;;;;;;1.33;1.08;;;22.50;47.00;;;;;;6279719;28;20435;-67
2021/10/15 00:25:58;;;;;;;6.32;1.15;;;22.50;47.00;;;;;;6283548;28;20021;-67
2021/10/15 00:28:59;;;;;;;1.08;0.98;;;22.50;47.00;;;;;;6290224;28;20417;-65
2021/10/15 00:31:59;;;;;;;1.52;1.08;;;22.50;47.00;;;;;;6276561;28;20028;-65
2021/10/15 00:35:00;;;;;;;1.42;1.00;;;22.50;47.00;;;;;;6265798;28;20051;-65
2021/10/15 00:38:00;;;;;;;1.10;1.00;;;22.50;47.00;;;;;;6286613;28;20028;-65
2021/10/15 00:41:01;;;;;;;1.95;1.05;;;22.50;46.90;;;;;;6285329;28;20386;-65
2021/10/15 00:44:06;;;;;;;0.88;0.80;;;22.50;46.90;;;;;;6265978;28;20441;-65
2021/10/15 00:47:07;;;;;;;0.93;0.82;;;22.50;46.90;;;;;;6276919;28;20481;-65
2021/10/15 00:50:08;;;;;;;0.90;0.80;;;22.50;46.90;;;;;;6290341;28;20107;-65
2021/10/15 00:53:09;;;;;;;1.02;0.93;;;22.50;46.80;;;;;;6270781;28;20021;-65
2021/10/15 00:56:09;;;;;;;1.00;0.80;;;22.50;46.80;;;;;;6267595;28;20059;-65
2021/10/15 00:59:11;;;;;;;1.20;0.80;;;22.50;46.90;;;;;;6289150;28;20028;-65
2021/10/15 01:02:11;;;;;;;1.08;0.82;;;22.50;46.80;;;;;;6273301;28;20576;-67
2021/10/15 01:05:12;;;;;;;0.82;0.80;;;22.50;46.80;;;;;;6265315;28;20025;-67
2021/10/15 01:08:13;;;;;;;1.15;0.70;;;22.50;46.80;;;;;;6280667;28;20514;-67
2021/10/15 01:11:16;;;;;;;0.88;0.88;;;22.50;46.80;;;;;;6290336;28;20066;-67
2021/10/15 01:14:17;;;;;;;0.80;0.80;;;22.50;46.80;;;;;;6260711;28;20025;-67
2021/10/15 01:17:18;;;;;;;1.15;0.80;;;22.50;46.80;;;;;;6257871;28;20028;-67
2021/10/15 01:20:18;;;;;;;1.02;0.82;;;22.50;46.80;;;;;;6289803;28;20481;-67
2021/10/15 01:23:19;;;;;;;0.90;0.80;;;22.50;46.80;;;;;;6275489;28;20083;-67
2021/10/15 01:26:19;;;;;;;1.25;0.93;;;22.50;46.80;;;;;;6281444;28;20028;-67
2021/10/15 01:29:20;;;;;;;1.10;0.93;;;22.50;46.70;;;;;;6294838;28;20025;-67
2021/10/15 01:32:21;;;;;;;0.70;0.70;;;22.50;46.80;;;;;;6292446;28;20458;-67
2021/10/15 01:35:22;;;;;;;1.02;0.77;;;22.50;46.70;;;;;;6295132;28;20033;-67
2021/10/15 01:38:23;;;;;;;0.93;0.82;;;22.50;46.60;;;;;;6270854;28;20025;-67
2021/10/15 01:41:23;;;;;;;0.82;0.68;;;22.50;46.60;;;;;;6269779;28;20482;-67
2021/10/15 01:44:24;;;;;;;0.88;0.77;;;22.50;46.60;;;;;;6269707;28;20138;-67
2021/10/15 01:47:24;;;;;;;0.82;0.70;;;22.50;46.60;;;;;;6284112;28;20028;-67
2021/10/15 01:50:27;;;;;;;0.70;0.70;;;22.50;46.50;;;;;;6294379;28;20017;-67
2021/10/15 01:53:28;;;;;;;0.75;0.75;;;22.50;46.50;;;;;;6293298;28;20119;-67
2021/10/15 01:56:28;;;;;;;1.02;0.80;;;22.50;46.50;;;;;;6289078;28;20048;-67
2021/10/15 01:59:29;;;;;;;1.10;0.90;;;22.50;46.50;;;;;;6269756;28;20086;-67
2021/10/15 02:02:29;;;;;;;0.60;0.60;;;22.50;46.50;;;;;;6280792;28;20021;-67
2021/10/15 02:05:30;;;;;;;0.60;0.60;;;22.50;46.50;;;;;;6293882;28;20511;-67
2021/10/15 02:08:31;;;;;;;2.55;1.15;;;22.50;46.50;;;;;;6292333;28;20507;-67
2021/10/15 02:11:31;;;;;;;0.93;0.82;;;22.50;46.40;;;;;;6294020;28;20027;-67
2021/10/15 02:14:32;;;;;;;0.73;0.70;;;22.50;46.50;;;;;;6279918;28;20488;-67
2021/10/15 02:17:32;;;;;;;1.00;0.77;;;22.50;46.50;;;;;;6264425;28;20231;-67
2021/10/15 02:20:33;;;;;;;1.00;0.70;;;22.50;46.40;;;;;;6293624;28;20029;-65
2021/10/15 02:23:34;;;;;;;0.80;0.60;;;22.50;46.50;;;;;;6294011;28;20025;-67
2021/10/15 02:26:34;;;;;;;0.73;0.73;;;22.50;46.40;;;;;;6287319;28;20056;-67
2021/10/15 02:29:35;;;;;;;0.80;0.80;;;22.50;46.50;;;;;;6293168;28;20111;-67
2021/10/15 02:32:36;;;;;;;0.73;0.60;;;22.50;46.40;;;;;;6292386;28;20024;-67
2021/10/15 02:35:37;;;;;;;0.65;0.60;;;22.50;46.40;;;;;;6293376;28;20460;-67
2021/10/15 02:38:37;;;;;;;0.75;0.60;;;22.50;46.40;;;;;;6292946;28;20055;-67
2021/10/15 02:41:38;;;;;;;0.50;0.50;;;22.50;46.30;;;;;;6276180;28;20194;-67
2021/10/15 02:44:39;;;;;;;0.60;0.60;;;22.50;46.30;;;;;;6268553;28;20517;-67
2021/10/15 02:47:39;;;;;;;2.55;0.75;;;22.50;46.30;;;;;;6283152;28;20046;-67
2021/10/15 02:50:40;;;;;;;1.73;0.70;;;22.50;46.30;;;;;;6293376;28;20031;-67
2021/10/15 02:53:40;;;;;;;0.68;0.60;;;22.50;46.30;;;;;;6293087;28;20063;-67
2021/10/15 02:56:42;;;;;;;0.52;0.52;;;22.50;46.30;;;;;;6293047;28;20025;-67
2021/10/15 02:59:43;;;;;;;0.70;0.60;;;22.50;46.30;;;;;;6292861;28;20025;-67
2021/10/15 03:02:43;;;;;;;0.60;0.60;;;22.50;46.30;;;;;;6278433;28;20068;-65
2021/10/15 03:05:44;;;;;;;0.68;0.68;;;22.50;46.30;;;;;;6267928;28;20044;-65
2021/10/15 03:08:45;;;;;;;0.90;0.50;;;22.50;46.30;;;;;;6288500;28;20067;-65
2021/10/15 03:11:45;;;;;;;0.75;0.75;;;22.50;46.30;;;;;;6292779;28;20016;-65
2021/10/15 03:14:46;;;;;;;0.73;0.60;;;22.50;46.30;;;;;;6283920;28;20377;-65
2021/10/15 03:17:47;;;;;;;0.57;0.50;;;22.50;46.30;;;;;;6277941;28;20170;-67
2021/10/15 03:20:48;;;;;;;0.77;0.50;;;22.50;46.20;;;;;;6292620;28;20470;-67
2021/10/15 03:23:48;;;;;;;0.65;0.63;;;22.50;46.20;;;;;;6273488;28;20025;-67
2021/10/15 03:26:49;;;;;;;0.70;0.55;;;22.50;46.20;;;;;;6268536;28;20397;-67
2021/10/15 03:29:49;;;;;;;0.75;0.73;;;22.50;46.20;;;;;;6266576;28;20025;-67
2021/10/15 03:32:50;;;;;;;0.90;0.60;;;22.50;46.20;;;;;;6287147;28;20516;-67
2021/10/15 03:35:50;;;;;;;0.60;0.60;;;22.50;46.10;;;;;;6291871;28;20103;-67
2021/10/15 03:38:51;;;;;;;0.93;0.70;;;22.50;46.20;;;;;;6292120;28;20021;-67
2021/10/15 03:41:52;;;;;;;0.45;0.45;;;22.50;46.20;;;;;;6281041;28;20025;-67
2021/10/15 03:44:53;;;;;;;1.05;0.60;;;22.50;46.10;;;;;;6267187;28;20098;-67
2021/10/15 03:47:54;;;;;;;0.50;0.50;;;22.50;46.20;;;;;;6285035;28;20029;-67
2021/10/15 03:50:54;;;;;;;0.50;0.50;;;22.50;46.20;;;;;;6290714;28;20021;-67
2021/10/15 03:53:55;;;;;;;0.50;0.50;;;22.50;46.20;;;;;;6291679;28;20051;-67
2021/10/15 03:56:55;;;;;;;0.55;0.55;;;22.50;46.10;;;;;;6291119;28;20040;-65
2021/10/15 04:00:33;;;;;;;0.73;0.60;;;22.50;46.10;;;;;;6275336;28;20036;-65
2021/10/15 04:03:33;;;;;;;0.50;0.50;;;22.50;46.00;;;;;;6266133;28;20054;-68
2021/10/15 04:06:34;;;;;;;0.80;0.70;;;22.50;46.10;;;;;;6266834;28;20429;-67
2021/10/15 04:09:34;;;;;;;0.50;0.50;;;22.50;46.10;;;;;;6266350;28;20052;-67
2021/10/15 04:12:36;;;;;;;0.68;0.50;;;22.50;46.10;;;;;;6275401;28;20050;-67
2021/10/15 04:15:36;;;;;;;0.60;0.50;;;22.50;46.10;;;;;;6258842;28;20044;-67
2021/10/15 04:18:37;;;;;;;0.50;0.50;;;22.50;46.10;;;;;;6279273;28;20021;-67
2021/10/15 04:21:37;;;;;;;0.50;0.50;;;22.50;46.10;;;;;;6290872;28;20063;-67
2021/10/15 04:24:38;;;;;;;0.50;0.50;;;22.50;46.10;;;;;;6291081;28;20056;-67
2021/10/15 04:27:39;;;;;;;0.50;0.50;;;22.50;46.00;;;;;;6288817;28;20047;-67
2021/10/15 04:30:39;;;;;;;0.50;0.50;;;22.60;46.10;;;;;;6289746;28;20025;-67
2021/10/15 04:33:40;;;;;;;0.50;0.50;;;22.60;46.10;;;;;;6267008;28;20055;-65
2021/10/15 04:36:41;;;;;;;0.40;0.40;;;22.60;46.00;;;;;;6275799;28;20032;-65
2021/10/15 04:39:41;;;;;;;0.40;0.40;;;22.60;46.00;;;;;;6290663;28;20051;-67
2021/10/15 04:42:42;;;;;;;0.73;0.60;;;22.50;46.00;;;;;;6272691;28;20102;-67
2021/10/15 04:45:42;;;;;;;1.00;0.57;;;22.60;46.00;;;;;;6265773;28;20025;-67
2021/10/15 04:48:43;;;;;;;0.60;0.52;;;22.60;46.00;;;;;;6290742;28;20026;-67
2021/10/15 04:51:44;;;;;;;0.68;0.40;;;22.60;45.90;;;;;;6289843;28;20404;-67
2021/10/15 04:54:44;;;;;;;0.77;0.52;;;22.60;45.90;;;;;;6290163;28;20021;-67
2021/10/15 04:57:45;;;;;;;0.45;0.45;;;22.60;46.00;;;;;;6289899;28;20070;-67
2021/10/15 05:00:45;;;;;;;0.40;0.40;;;22.60;46.00;;;;;;6290120;28;20292;-67
2021/10/15 05:03:46;;;;;;;0.73;0.50;;;22.60;46.00;;;;;;6287095;28;20732;-67
2021/10/15 05:06:46;;;;;;;0.50;0.50;;;22.60;46.00;;;;;;6283778;28;20035;-65
2021/10/15 05:09:47;;;;;;;0.60;0.60;;;22.60;46.00;;;;;;6289488;28;20051;-65
2021/10/15 05:12:51;;;;;;;0.52;0.43;;;22.60;46.00;;;;;;6285323;28;20558;-66
2021/10/15 05:15:52;;;;;;;0.75;0.52;;;22.60;46.00;;;;;;6246736;28;20037;-65
2021/10/15 05:18:52;;;;;;;0.75;0.50;;;22.60;46.00;;;;;;6283964;28;20081;-65
2021/10/15 05:21:53;;;;;;;0.40;0.40;;;22.60;46.00;;;;;;6286390;28;20057;-65
2021/10/15 05:24:53;;;;;;;0.40;0.40;;;22.60;46.00;;;;;;6267728;28;20027;-66
2021/10/15 05:27:54;;;;;;;1.33;0.50;;;22.60;45.90;;;;;;6287923;28;20159;-68
2021/10/15 05:30:56;;;;;;;0.50;0.50;;;22.60;45.90;;;;;;6288881;28;20107;-68
2021/10/15 05:33:57;;;;;;;0.52;0.50;;;22.60;46.00;;;;;;6284790;28;20064;-68
2021/10/15 05:36:57;;;;;;;2.78;0.60;;;22.60;46.10;;;;;;6275772;28;20024;-67
2021/10/15 05:39:58;;;;;;;0.90;0.68;;;22.60;46.10;;;;;;6289166;28;20117;-68
2021/10/15 05:42:59;;;;;;;1.30;0.70;;;22.60;46.10;;;;;;6289532;28;20036;-68
2021/10/15 05:45:59;;;;;;;0.47;0.47;;;22.60;46.10;;;;;;6287015;28;20033;-68
2021/10/15 05:49:00;;;;;;;0.50;0.40;;;22.60;46.00;;;;;;6265203;28;20037;-68
2021/10/15 05:52:07;;;;;;;0.90;0.68;;;22.60;45.80;;;;;;6275048;28;20474;-68
2021/10/15 06:01:35;;;;;;;2.25;1.00;;;22.60;45.80;;;;;;6265619;28;20029;-68
2021/10/15 06:14:31;;;;;;;0.82;0.80;;;22.60;45.90;;;;;;6253515;28;20369;-68
2021/10/15 06:17:34;;;;;;;1.58;0.85;;;22.60;45.80;;;;;;6283348;28;20013;-68
2021/10/15 06:20:36;;;;;;;0.60;0.60;;;22.60;45.80;;;;;;6295600;28;20032;-68
2021/10/15 06:23:36;;;;;;;0.73;0.68;;;22.60;45.80;;;;;;6297044;28;20078;-66
2021/10/15 06:26:37;;;;;;;2.30;0.75;;;22.60;45.70;;;;;;6296716;28;20028;-68
2021/10/15 06:29:38;;;;;;;0.98;0.70;;;22.60;45.70;;;;;;6296574;28;20428;-68
2021/10/15 06:32:38;;;;;;;0.70;0.60;;;22.60;45.70;;;;;;6293712;28;20020;-68
2021/10/15 06:35:39;;;;;;;0.50;0.43;;;22.60;45.80;;;;;;6296301;28;20031;-68
2021/10/15 06:38:40;;;;;;;2.42;0.75;;;22.60;45.70;;;;;;6296253;28;20025;-68
2021/10/15 06:41:41;;;;;;;1.83;0.77;;;22.60;45.70;;;;;;6287655;28;20025;-68
2021/10/15 06:44:41;;;;;;;2.47;0.80;;;22.60;45.70;;;;;;6271944;28;20481;-68
2021/10/15 06:47:42;;;;;;;2.33;1.15;;;22.60;46.40;;;;;;6288151;28;20052;-68
2021/10/15 06:50:42;;;;;;;1.52;0.77;;;22.60;45.80;;;;;;6296510;28;20394;-68
2021/10/15 06:53:43;;;;;;;1.75;0.80;;;22.60;45.70;;;;;;6271552;28;20410;-68
2021/10/15 06:56:45;;;;;;;0.93;0.60;;;22.60;45.70;;;;;;6272401;28;20077;-68
2021/10/15 06:59:46;;;;;;;3.33;0.82;;;22.60;45.70;;;;;;6271653;28;20453;-68
2021/10/15 07:02:46;;;;;;;3.55;0.82;;;22.60;45.70;;;;;;6270417;28;20075;-68
2021/10/15 07:05:47;;;;;;;1.27;0.70;;;22.60;45.60;;;;;;6270721;28;20036;-68
2021/10/15 07:08:47;;;;;;;2.08;0.68;;;22.60;45.60;;;;;;6291018;28;20052;-68
2021/10/15 07:11:48;;;;;;;2.05;0.70;;;22.60;45.60;;;;;;6292280;28;20113;-68
2021/10/15 07:14:49;;;;;;;3.15;0.65;;;22.60;45.60;;;;;;6262026;28;20096;-68
2021/10/15 07:17:49;;;;;;;1.38;0.70;;;22.60;45.60;;;;;;6260737;28;20025;-68
2021/10/15 07:20:50;;;;;;;3.65;0.70;;;22.60;45.60;;;;;;6270944;28;20091;-68
2021/10/15 07:23:52;;;;;;;2.45;0.60;;;22.60;45.60;;;;;;6289810;28;20024;-68
2021/10/15 07:26:53;;;;;;;1.45;0.73;;;22.60;46.30;;;;;;6294761;28;20275;-68
2021/10/15 07:29:53;;;;;;;2.05;0.50;;;22.60;45.60;;;;;;6295197;28;20064;-68
2021/10/15 07:32:54;;;;;;;1.02;0.80;;;22.60;45.50;;;;;;6293807;28;20030;-68
2021/10/15 07:35:55;;;;;;;1.92;0.60;;;22.60;45.50;;;;;;6291024;28;20104;-68
2021/10/15 07:38:55;;;;;;;0.95;0.55;;;22.60;45.50;;;;;;6270145;28;20025;-69
2021/10/15 07:41:56;;;;;;;1.15;0.50;;;22.60;45.50;;;;;;6280069;28;20032;-68
2021/10/15 07:44:57;;;;;;;2.10;0.70;;;22.60;45.50;;;;;;6295360;28;20021;-68
2021/10/15 07:47:57;;;;;;;0.60;0.50;;;22.60;45.50;;;;;;6275320;28;20033;-68
2021/10/15 07:50:58;;;;;;;1.08;0.60;;;22.60;45.50;;;;;;6271862;28;20470;-68
2021/10/15 07:53:58;;;;;;;0.68;0.50;;;22.60;45.50;;;;;;6293525;28;20546;-68
2021/10/15 07:56:59;;;;;;;0.60;0.60;;;22.60;45.50;;;;;;6293038;28;20552;-68
2021/10/15 08:00:00;;;;;;;1.50;0.70;;;22.60;45.50;;;;;;6293189;28;20031;-68
2021/10/15 08:03:00;;;;;;;2.22;0.60;;;22.60;45.50;;;;;;6268462;28;20037;-68
2021/10/15 08:06:01;;;;;;;1.05;0.60;;;22.60;45.40;;;;;;6269439;28;20094;-68
2021/10/15 08:09:02;;;;;;;0.73;0.50;;;22.60;45.40;;;;;;6287866;28;20369;-68
2021/10/15 08:12:03;;;;;;;1.30;0.60;;;22.60;45.40;;;;;;6275628;28;20119;-68
2021/10/15 08:15:09;;;;;;;1.58;0.60;;;22.60;45.40;;;;;;6282723;28;20023;-68
2021/10/15 08:18:09;;;;;;;0.50;0.50;;;22.60;45.40;;;;;;6282477;28;20470;-66
2021/10/15 08:21:10;;;;;;;0.98;0.57;;;22.60;45.40;;;;;;6269651;28;20045;-68
2021/10/15 08:24:11;;;;;;;0.80;0.47;;;22.60;45.40;;;;;;6292698;28;20052;-68
2021/10/15 08:27:11;;;;;;;0.88;0.55;;;22.60;45.40;;;;;;6293054;28;20128;-68
2021/10/15 08:30:13;;;;;;;0.80;0.60;;;22.60;45.40;;;;;;6294307;28;20588;-68
2021/10/15 08:33:14;;;;;;;0.52;0.50;;;22.60;45.40;;;;;;6292889;28;20420;-68
2021/10/15 08:36:15;;;;;;;0.68;0.57;;;22.60;45.40;;;;;;6293013;28;20028;-68
2021/10/15 08:39:18;;;;;;;0.90;0.47;;;22.60;45.30;;;;;;6293582;28;20024;-68
2021/10/15 08:42:18;;;;;;;0.60;0.50;;;22.60;45.30;;;;;;6279128;28;20452;-68
2021/10/15 08:45:31;;;;;;;1.13;0.40;;;22.60;45.30;;;;;;6268665;28;20029;-68
2021/10/15 08:48:37;;;;;;;0.40;0.40;;;22.60;45.30;;;;;;6292120;28;20017;-68
2021/10/15 08:51:38;;;;;;;0.93;0.70;;;22.70;45.40;;;;;;6293675;28;20017;-68
2021/10/15 08:54:40;;;;;;;0.90;0.60;;;22.70;45.40;;;;;;6293341;28;20021;-68
2021/10/15 08:57:58;;;;;;;0.70;0.52;;;22.70;45.40;;;;;;6293045;28;20021;-68
2021/10/15 09:00:58;;;;;;;0.73;0.40;;;22.60;45.30;;;;;;6293475;28;20021;-68
2021/10/15 09:04:04;;;;;;;3.70;0.60;;;22.70;45.30;;;;;;6293256;28;20075;-68
2021/10/15 09:07:11;;;;;;;1.58;0.55;;;22.60;45.30;;;;;;6293024;28;20035;-68
2021/10/15 09:10:19;;;;;;;0.43;0.40;;;22.70;45.30;;;;;;6269105;28;20123;-68
2021/10/15 09:13:21;;;;;;;0.68;0.45;;;22.70;45.30;;;;;;6283488;28;20731;-68
2021/10/15 09:16:21;;;;;;;0.90;0.57;;;22.70;45.30;;;;;;6251212;28;20096;-68
2021/10/15 09:19:43;;;;;;;0.90;0.50;;;22.70;45.30;;;;;;6292306;28;20582;-68
2021/10/15 09:22:45;;;;;;;0.95;0.70;;;22.60;45.20;;;;;;6293086;28;20019;-68
2021/10/15 09:25:46;;;;;;;0.63;0.60;;;22.70;45.30;;;;;;6286536;28;20115;-68
2021/10/15 09:28:47;;;;;;;1.85;0.63;;;22.70;45.30;;;;;;6293158;28;20028;-68
2021/10/15 09:31:48;;;;;;;1.17;0.60;;;22.60;45.20;;;;;;6279947;28;20529;-68
2021/10/15 09:34:50;;;;;;;0.95;0.50;;;22.60;45.30;;;;;;6269973;28;20021;-70
2021/10/15 09:38:00;;;;;;;0.70;0.50;;;22.60;45.20;;;;;;6268757;28;20025;-69
2021/10/15 09:41:01;;;;;;;0.45;0.45;;;22.60;45.20;;;;;;6272353;28;20051;-69
2021/10/15 09:44:01;;;;;;;0.50;0.50;;;22.60;45.20;;;;;;6293043;28;20033;-69
2021/10/15 09:47:33;;;;;;;1.00;0.60;;;22.70;45.30;;;;;;6293109;28;20090;-68
2021/10/15 09:50:35;;;;;;;0.77;0.57;;;22.70;45.30;;;;;;6292974;28;20043;-68
2021/10/15 09:53:36;;;;;;;0.55;0.47;;;22.70;45.30;;;;;;6297209;28;20035;-68
2021/10/15 09:56:41;;;;;;;0.82;0.40;;;22.70;45.30;;;;;;6291002;28;20389;-69
2021/10/15 09:59:42;;;;;;;0.55;0.40;;;22.70;45.30;;;;;;6273478;28;20501;-67
2021/10/15 10:02:43;;;;;;;0.40;0.38;;;22.70;45.30;;;;;;6272991;28;20025;-67
2021/10/15 10:05:44;;;;;;;0.75;0.47;;;22.70;45.20;;;;;;6272528;28;20058;-67
2021/10/15 10:08:44;;;;;;;0.40;0.40;;;22.70;45.20;;;;;;6271820;28;20498;-67
2021/10/15 10:11:45;;;;;;;0.52;0.50;;;22.70;45.30;;;;;;6277456;28;20035;-68
2021/10/15 10:14:47;;;;;;;1.42;0.60;;;22.60;45.20;;;;;;6271662;28;20074;-67
2021/10/15 10:18:29;;;;;;;0.50;0.40;;;22.70;45.20;;;;;;6260246;28;20025;-67
2021/10/15 10:21:33;;;;;;;0.75;0.60;;;22.70;45.20;;;;;;6272049;28;20390;-68
2021/10/15 10:24:42;;;;;;;0.40;0.40;;;22.60;45.40;;;;;;6271797;28;20025;-67
2021/10/15 10:27:43;;;;;;;0.90;0.57;;;22.50;46.20;;;;;;6291443;28;20036;-67
2021/10/15 10:30:46;;;;;;;0.47;0.45;;;22.40;46.50;;;;;;6295611;28;20028;-68
2021/10/15 10:33:59;;;;;;;0.80;0.60;;;22.30;46.80;;;;;;6296282;28;20063;-67
2021/10/15 10:37:07;;;;;;;1.17;0.70;;;22.30;47.00;;;;;;6296681;28;20021;-68
2021/10/15 10:40:09;;;;;;;0.82;0.57;;;22.30;47.30;;;;;;6296558;28;20028;-67
2021/10/15 10:43:10;;;;;;;0.45;0.45;;;22.20;47.30;;;;;;6296090;28;20025;-67
2021/10/15 10:46:12;;;;;;;0.55;0.40;;;22.20;47.50;;;;;;6296125;28;20040;-67
2021/10/15 10:49:13;;;;;;;0.50;0.32;;;22.20;47.60;;;;;;6295924;28;20040;-67
2021/10/15 10:52:16;;;;;;;0.52;0.38;;;22.20;47.80;;;;;;6296186;28;20040;-68
2021/10/15 10:55:42;;;;;;;0.50;0.45;;;22.10;47.80;;;;;;6277538;28;20115;-67
2021/10/15 10:58:43;;;;;;;0.45;0.40;;;22.10;47.90;;;;;;6294103;28;20078;-68
2021/10/15 11:01:45;;;;;;;0.43;0.40;;;22.10;48.00;;;;;;6295937;28;20036;-67
2021/10/15 11:04:51;;;;;;;0.40;0.40;;;22.10;48.20;;;;;;6295927;28;20026;-67
2021/10/15 11:08:23;;;;;;;0.60;0.50;;;22.10;48.30;;;;;;6295553;28;20024;-67
2021/10/15 11:11:26;;;;;;;0.82;0.50;;;22.10;48.30;;;;;;6247111;28;20039;-68
2021/10/15 11:14:54;;;;;;;0.55;0.47;;;22.00;48.30;;;;;;6289738;28;20021;-68
2021/10/15 11:17:55;;;;;;;1.15;0.60;;;22.00;48.40;;;;;;6283050;28;20012;-67
2021/10/15 11:20:55;;;;;;;0.73;0.45;;;22.00;48.60;;;;;;6295280;28;20032;-67
2021/10/15 11:24:13;;;;;;;1.83;0.50;;;22.00;48.70;;;;;;6295657;28;20029;-67
2021/10/15 11:27:16;;;;;;;0.30;0.30;;;22.00;48.70;;;;;;6289052;28;20093;-67
2021/10/15 11:30:17;;;;;;;0.50;0.40;;;22.00;48.80;;;;;;6295036;28;20028;-67
2021/10/15 11:33:22;;;;;;;1.20;0.43;;;22.00;48.90;;;;;;6294493;28;20025;-67
2021/10/15 11:36:22;;;;;;;0.73;0.57;;;22.00;49.00;;;;;;6287000;28;20044;-67
2021/10/15 11:39:23;;;;;;;0.73;0.52;;;21.90;48.90;;;;;;6292103;28;20470;-68
2021/10/15 11:42:23;;;;;;;0.75;0.50;;;22.00;49.10;;;;;;6294907;28;20048;-65
2021/10/15 11:45:30;;;;;;;0.63;0.40;;;22.00;49.10;;;;;;6294910;28;20108;-68
2021/10/15 11:48:40;;;;;;;0.50;0.50;;;21.90;49.10;;;;;;6271028;28;20021;-67
2021/10/15 11:51:41;;;;;;;0.93;0.50;;;22.00;49.30;;;;;;6277281;28;20439;-67
2021/10/15 11:54:41;;;;;;;0.63;0.40;;;22.00;49.20;;;;;;6294931;28;20028;-67
2021/10/15 11:57:42;;;;;;;1.10;0.60;;;21.90;49.20;;;;;;6294546;28;20021;-67
2021/10/15 12:01:03;;;;;;;0.40;0.30;;;21.90;49.30;;;;;;6293559;28;20052;-68
2021/10/15 12:04:07;;;;;;;0.43;0.43;;;21.90;49.30;;;;;;6245384;28;20030;-68
2021/10/15 12:07:08;;;;;;;1.17;0.43;;;21.90;49.40;;;;;;6263663;28;20031;-69
2021/10/15 12:10:09;;;;;;;0.50;0.40;;;21.90;49.40;;;;;;6294324;28;20498;-69
2021/10/15 12:13:09;;;;;;;0.85;0.50;;;21.90;49.40;;;;;;6294836;28;20028;-68
2021/10/15 12:16:17;;;;;;;0.50;0.30;;;21.90;49.50;;;;;;6274008;28;20359;-70
2021/10/15 12:19:17;;;;;;;0.60;0.47;;;21.90;49.50;;;;;;6269335;28;20461;-70
2021/10/15 12:22:24;;;;;;;0.95;0.50;;;21.80;49.50;;;;;;6276027;28;20029;-69
2021/10/15 12:25:26;;;;;;;0.50;0.43;;;21.80;49.60;;;;;;6287837;28;20025;-68
2021/10/15 12:28:33;;;;;;;0.68;0.50;;;21.90;49.70;;;;;;6294291;28;20020;-68
2021/10/15 12:31:35;;;;;;;1.08;0.55;;;21.80;49.60;;;;;;6292989;28;20184;-68
2021/10/15 12:34:53;;;;;;;1.08;0.45;;;21.80;49.60;;;;;;6294575;28;20016;-69
2021/10/15 12:37:56;;;;;;;0.40;0.40;;;21.80;49.70;;;;;;6295407;28;20442;-69
2021/10/15 12:40:57;;;;;;;0.32;0.30;;;21.80;49.60;;;;;;6291218;28;20438;-68
2021/10/15 12:43:58;;;;;;;0.70;0.50;;;21.80;49.70;;;;;;6269186;28;20037;-68
2021/10/15 12:47:02;;;;;;;0.50;0.50;;;21.80;49.80;;;;;;6294361;28;20021;-68
2021/10/15 12:50:06;;;;;;;0.57;0.50;;;21.80;49.70;;;;;;6292218;28;20029;-69
2021/10/15 12:53:17;;;;;;;0.50;0.50;;;21.80;49.80;;;;;;6290432;28;20032;-68
2021/10/15 12:56:41;;;;;;;0.40;0.40;;;21.80;49.90;;;;;;6293430;28;20016;-69
2021/10/15 13:00:00;;;;;;;0.77;0.47;;;21.80;49.90;;;;;;6293728;28;20048;-69
2021/10/15 13:03:06;;;;;;;0.60;0.43;;;21.80;49.90;;;;;;6276100;28;20035;-69
2021/10/15 13:06:07;;;;;;;0.82;0.47;;;21.80;49.90;;;;;;6268480;28;20406;-69
2021/10/15 13:09:09;;;;;;;1.48;0.43;;;21.80;50.00;;;;;;6268102;28;20045;-68
2021/10/15 13:12:10;;;;;;;0.47;0.40;;;21.80;50.00;;;;;;6268183;28;20039;-68
2021/10/15 13:15:12;;;;;;;0.40;0.40;;;21.80;50.00;;;;;;6268387;28;20036;-68
2021/10/15 13:18:13;;;;;;;0.50;0.47;;;21.80;50.00;;;;;;6279434;28;20124;-68
2021/10/15 13:21:15;;;;;;;0.45;0.45;;;21.80;50.00;;;;;;6293285;28;20031;-68
2021/10/15 13:24:15;;;;;;;0.40;0.40;;;21.80;50.00;;;;;;6273569;28;20032;-68
2021/10/15 13:27:16;;;;;;;0.30;0.30;;;21.80;50.00;;;;;;6289998;28;20060;-68
2021/10/15 13:30:17;;;;;;;0.68;0.40;;;21.80;50.00;;;;;;6292822;28;20347;-69
2021/10/15 13:33:19;;;;;;;0.80;0.50;;;21.80;50.10;;;;;;6292038;28;20032;-68
2021/10/15 13:36:20;;;;;;;0.40;0.40;;;21.80;50.10;;;;;;6283953;28;20032;-68
2021/10/15 13:39:23;;;;;;;0.40;0.40;;;21.80;50.10;;;;;;6268303;28;20021;-66
2021/10/15 13:51:33;;;;;;;0.40;0.40;;;21.80;50.20;;;;;;6270244;28;20040;-66
2021/10/15 13:54:34;;;;;;;0.55;0.40;;;21.80;50.20;;;;;;6273703;28;20040;-68
2021/10/15 13:57:37;;;;;;;0.40;0.40;;;21.80;50.20;;;;;;6268029;28;20033;-68
2021/10/15 14:00:42;;;;;;;1.10;0.70;;;21.80;50.30;;;;;;6267952;28;20636;-66
2021/10/15 14:06:50;;;;;;;0.75;0.28;;;21.80;50.20;;;;;;6274384;28;20151;-69
2021/10/15 14:09:51;;;;;;;0.30;0.30;;;21.80;50.30;;;;;;6277633;28;20137;-66
2021/10/15 14:12:52;;;;;;;0.77;0.47;;;21.80;50.30;;;;;;6282401;28;20032;-69
2021/10/15 14:15:52;;;;;;;0.73;0.40;;;21.80;51.10;;;;;;6274016;28;20045;-68
2021/10/15 14:18:53;;;;;;;0.40;0.40;;;21.80;50.40;;;;;;6285799;28;20029;-68
2021/10/15 14:21:53;;;;;;;0.40;0.30;;;21.80;50.40;;;;;;6272400;28;20198;-68
2021/10/15 14:24:54;;;;;;;0.50;0.50;;;21.80;50.50;;;;;;6292195;28;20041;-68
2021/10/15 14:27:55;;;;;;;0.43;0.30;;;21.80;50.40;;;;;;6292493;28;20023;-69
2021/10/15 14:30:55;;;;;;;0.47;0.40;;;21.80;50.40;;;;;;6291543;28;20024;-68
2021/10/15 14:33:56;;;;;;;0.60;0.40;;;21.80;51.10;;;;;;6294020;28;20429;-68
2021/10/15 14:36:57;;;;;;;0.30;0.30;;;21.80;50.40;;;;;;6296580;28;20029;-68
2021/10/15 14:39:58;;;;;;;0.40;0.40;;;21.70;50.30;;;;;;6296184;28;20032;-68
2021/10/15 14:42:58;;;;;;;0.75;0.40;;;21.80;50.50;;;;;;6296847;28;20107;-68
2021/10/15 14:45:59;;;;;;;1.02;0.40;;;21.80;50.40;;;;;;6294635;28;20046;-69
2021/10/15 14:49:01;;;;;;;0.57;0.50;;;21.80;50.60;;;;;;6296496;28;20024;-68
2021/10/15 14:52:01;;;;;;;0.32;0.32;;;21.70;50.40;;;;;;6295273;28;20063;-69
2021/10/15 14:55:04;;;;;;;0.50;0.40;;;21.80;50.50;;;;;;6296240;28;20067;-68
2021/10/15 14:58:07;;;;;;;0.60;0.40;;;21.70;50.40;;;;;;6295652;28;20050;-68
2021/10/15 15:01:10;;;;;;;0.40;0.40;;;21.70;50.40;;;;;;6291300;28;20096;-68
2021/10/15 15:04:13;;;;;;;0.40;0.40;;;21.70;50.40;;;;;;6296246;28;20086;-68
2021/10/15 15:07:13;;;;;;;0.60;0.30;;;21.80;50.50;;;;;;6288520;28;20036;-68
2021/10/15 15:10:14;;;;;;;0.43;0.40;;;21.70;50.40;;;;;;6270200;28;20068;-68
2021/10/15 15:13:14;;;;;;;0.70;0.43;;;21.70;50.50;;;;;;6283287;28;20017;-68
2021/10/15 15:16:15;;;;;;;0.65;0.43;;;21.80;50.60;;;;;;6254813;28;20044;-68
2021/10/15 15:19:16;;;;;;;0.65;0.55;;;21.70;50.60;;;;;;6290708;28;20316;-68
2021/10/15 15:22:18;;;;;;;0.35;0.30;;;21.70;50.50;;;;;;6296244;28;20040;-69
2021/10/15 15:25:19;;;;;;;0.50;0.40;;;21.70;50.50;;;;;;6274775;28;20650;-67
2021/10/15 15:28:20;;;;;;;0.80;0.50;;;21.70;50.50;;;;;;6269419;28;20111;-67
2021/10/15 15:31:20;;;;;;;4.28;0.77;;;21.70;50.60;;;;;;6265403;28;20017;-67
2021/10/15 15:34:21;;;;;;;5.82;0.80;;;21.70;50.50;;;;;;6269530;28;20025;-67
2021/10/15 15:37:22;;;;;;;3.85;0.90;;;21.70;50.30;;;;;;6272146;28;20033;-67
2021/10/15 15:40:22;;;;;;;4.35;0.95;;;21.70;50.10;;;;;;6269317;28;20032;-67
2021/10/15 15:43:24;;;;;;;2.65;0.82;;;21.70;50.00;;;;;;6283455;28;20108;-67
2021/10/15 15:46:25;;;;;;;2.33;1.00;;;21.70;49.90;;;;;;6269792;28;20033;-67
2021/10/15 15:49:28;;;;;;;4.15;1.45;;;21.60;49.70;;;;;;6269082;28;20033;-67
2021/10/15 15:52:29;;;;;;;2.65;1.10;;;21.60;49.60;;;;;;6270082;28;20032;-67
2021/10/15 15:55:30;;;;;;;2.30;1.30;;;21.60;49.50;;;;;;6268659;28;20382;-68
2021/10/15 15:58:30;;;;;;;6.45;1.55;;;21.60;49.40;;;;;;6269142;28;20397;-70
2021/10/15 16:01:31;;;;;;;8.00;1.52;;;21.70;49.40;;;;;;6275284;28;20038;-69
2021/10/15 16:04:31;;;;;;;8.65;1.40;;;21.60;49.20;;;;;;6269705;28;20029;-68
2021/10/15 16:07:34;;;;;;;4.28;1.50;;;21.70;49.20;;;;;;6267921;28;20035;-69
2021/10/15 16:10:38;;;;;;;6.63;1.50;;;21.70;49.40;;;;;;6268266;28;20049;-68
2021/10/15 16:13:40;;;;;;;10.30;1.40;;;21.70;49.50;;;;;;6269435;28;20032;-70
2021/10/15 16:16:40;;;;;;;3.42;1.27;;;21.70;49.50;;;;;;6274165;28;20029;-68
2021/10/15 16:19:41;;;;;;;5.60;1.42;;;21.70;49.60;;;;;;6255699;28;20541;-70